Terminal Aerodrome Forecast
Issued by NWS

Home | Current Version | Previous Version | Text Only | Print | Product List | Glossary On
Versions: 1 2 3 4 5 6 7 8 9 10 11 12 13
321
FTUS42 TJSJ 022006 AAA
TAFJBQ
TAF AMD
TJBQ 022006Z 0220/0318 10004KT P6SM VCSH SCT035
      TEMPO 0220/0222 2SM TSRA SCT010CB BKN015
     FM031400 06008KT P6SM FEW030 SCT060=

USA.gov is the U.S. government's official web portal to all federal, state and local government web resources and services.